Content
SEND FEEDBACK

Daily
Averages
Monthly
Summary
United States of America

ROCK HILL, NEW YORK


Home > North America > United States > New York
Elevation: 1260 feet     Latitude: 41 35N     Longitude: 074 37W

WEATHER
 
SELECT A DAY
Number of Records: 454,725;   Date Range: 1/1/95 - 12/19/14
 
SHARE

PRINT THIS DATA

[ ← Previous Day ]
WEATHER ALMANAC - MARCH 21, 2014
[ Next Day → ]
[ °C ]   °F
Weather ElementAverageHighLow
Barometer29.93 in30.02 in (8:35 pm)29.83 in (12:55 am)
Wind Speed12.7 mph24.2 mph (3:55 am)
Wind Gust34.5 mph (4:15 am)
Weather ElementAverage
Visibility10 mi
Wind DirectionW (268 °)

Weather ElementTotal
Precipitation---
Heating Degree Days65 (Base 65)
Averaged from 71 records on March 21, 2014
WEATHER CONDITIONS BREAKOUT
WIND DIRECTION BREAKOUT
WEATHER BY HOUR - MARCH 21, 2014
[ °C ]   °F
Local TimeTemperatureDewpointHumidityBarometerVisibilityWind DirectionWind SpeedGust SpeedPrecipitationEventsConditions
12:35 AM0.0 °F0.0 °F29.84 in10.0 miWNW (290°)10.4 mph19.6 mphOvercast
12:55 AM0.0 °F0.0 °F29.83 in10.0 miWest (280°)11.5 mph23.0 mphOvercast
1:15 AM0.0 °F0.0 °F29.83 in10.0 miWNW (290°)13.8 mph21.9 mphOvercast
1:35 AM0.0 °F0.0 °F29.84 in10.0 miWNW (290°)11.5 mph23.0 mphOvercast
1:55 AM0.0 °F0.0 °F29.85 in10.0 miWNW (300°)16.1 mph24.2 mphOvercast
2:15 AM0.0 °F0.0 °F29.85 in10.0 miWNW (290°)15.0 mph26.5 mphOvercast
2:35 AM0.0 °F0.0 °F29.85 in10.0 miWNW (300°)16.1 mph24.2 mphOvercast
2:55 AM0.0 °F0.0 °F29.85 in10.0 miWNW (290°)20.7 mph28.8 mphOvercast
3:15 AM0.0 °F0.0 °F29.85 in10.0 miWNW (290°)13.8 mph25.3 mphOvercast
3:35 AM0.0 °F0.0 °F29.85 in10.0 miWNW (300°)12.7 mph23.0 mphOvercast
3:55 AM0.0 °F0.0 °F29.85 in10.0 miWNW (290°)24.2 mph33.4 mphOvercast
4:15 AM0.0 °F0.0 °F29.86 in10.0 miWNW (290°)18.4 mph34.5 mphOvercast
4:35 AM0.0 °F0.0 °F29.86 in10.0 miWNW (290°)15.0 mph25.3 mphOvercast
4:55 AM0.0 °F0.0 °F29.87 in10.0 miWNW (290°)13.8 mph20.7 mphOvercast
5:15 AM0.0 °F0.0 °F29.87 in10.0 miWNW (290°)16.1 mph21.9 mphOvercast
5:35 AM0.0 °F0.0 °F29.87 in10.0 miWNW (300°)17.3 mph21.9 mphOvercast
5:55 AM0.0 °F0.0 °F29.87 in10.0 miWNW (290°)10.4 mph20.7 mphOvercast
6:15 AM0.0 °F0.0 °F29.88 in10.0 miWNW (300°)17.3 mphOvercast
6:35 AM0.0 °F0.0 °F29.88 in10.0 miWNW (300°)13.8 mph24.2 mphOvercast
6:55 AM0.0 °F0.0 °F29.89 in10.0 miWNW (290°)12.7 mph21.9 mphOvercast
7:15 AM0.0 °F0.0 °F29.89 in10.0 miNW (310°)11.5 mph23.0 mphOvercast
7:35 AM0.0 °F0.0 °F29.90 in10.0 miNW (310°)13.8 mph26.5 mphOvercast
7:55 AM0.0 °F0.0 °F29.90 in10.0 miWNW (290°)15.0 mph19.6 mphOvercast
8:15 AM0.0 °F0.0 °F29.91 in10.0 miWNW (300°)19.6 mph23.0 mphMostly Cloudy
8:35 AM0.0 °F0.0 °F29.92 in10.0 miWNW (300°)16.1 mph20.7 mphMostly Cloudy
8:55 AM0.0 °F0.0 °F29.92 in10.0 miWNW (300°)16.1 mph21.9 mphMostly Cloudy
9:15 AM0.0 °F0.0 °F29.92 in10.0 miWNW (290°)10.4 mph19.6 mphOvercast
9:35 AM0.0 °F0.0 °F29.92 in10.0 miWNW (290°)13.8 mph21.9 mphOvercast
9:55 AM0.0 °F0.0 °F29.93 in10.0 miWNW (290°)16.1 mphMostly Cloudy
10:15 AM0.0 °F0.0 °F29.93 in10.0 miWNW (300°)18.4 mph24.2 mphMostly Cloudy
10:35 AM0.0 °F0.0 °F29.94 in10.0 miWest (280°)15.0 mph20.7 mphMostly Cloudy
10:55 AM0.0 °F0.0 °F29.94 in10.0 miWest (280°)19.6 mph25.3 mphMostly Cloudy
11:15 AM0.0 °F0.0 °F29.94 in10.0 miWNW (290°)15.0 mph26.5 mphPartly Cloudy
11:35 AM0.0 °F0.0 °F29.95 in10.0 miWest (280°)18.4 mph26.5 mphPartly Cloudy
11:55 AM0.0 °F0.0 °F29.95 in10.0 miWest (280°)16.1 mph26.5 mphScattered Clouds
12:15 PM0.0 °F0.0 °F29.96 in10.0 miWNW (290°)13.8 mph27.6 mphScattered Clouds
12:35 PM0.0 °F0.0 °F29.95 in10.0 miWNW (290°)18.4 mph24.2 mphScattered Clouds
12:55 PM0.0 °F0.0 °F29.95 in10.0 miWNW (290°)18.4 mph25.3 mphPartly Cloudy
1:15 PM0.0 °F0.0 °F29.95 in10.0 miWest (280°)16.1 mph26.5 mphClear
1:35 PM0.0 °F0.0 °F29.95 in10.0 miNW (310°)20.7 mph27.6 mphClear
1:55 PM0.0 °F0.0 °F29.95 in10.0 miNW (310°)20.7 mph25.3 mphClear
2:15 PM0.0 °F0.0 °F29.95 in10.0 miWNW (300°)19.6 mph24.2 mphClear
2:35 PM0.0 °F0.0 °F29.95 in10.0 miWNW (300°)16.1 mph26.5 mphClear
2:55 PM0.0 °F0.0 °F29.95 in10.0 miWNW (300°)13.8 mph21.9 mphClear
3:15 PM0.0 °F0.0 °F29.95 in10.0 miWNW (300°)19.6 mph25.3 mphClear
3:35 PM0.0 °F0.0 °F29.95 in10.0 miWNW (290°)15.0 mph25.3 mphClear
3:55 PM0.0 °F0.0 °F29.95 in10.0 miWNW (300°)11.5 mph19.6 mphClear
4:15 PM0.0 °F0.0 °F29.96 in10.0 miWNW (290°)15.0 mph21.9 mphClear
4:35 PM0.0 °F0.0 °F29.96 in10.0 miNW (310°)13.8 mph21.9 mphClear
4:55 PM0.0 °F0.0 °F29.96 in10.0 miWNW (290°)12.7 mph17.3 mphClear
5:15 PM0.0 °F0.0 °F29.97 in10.0 miNW (310°)15.0 mph24.2 mphClear
5:35 PM0.0 °F0.0 °F29.98 in10.0 miWNW (300°)11.5 mph24.2 mphClear
5:55 PM0.0 °F0.0 °F29.99 in10.0 miNW (320°)12.7 mphClear
6:15 PM0.0 °F0.0 °F30.00 in10.0 miNW (310°)10.4 mphClear
6:35 PM0.0 °F0.0 °F30.00 in10.0 miNW (310°)9.2 mph18.4 mphClear
6:55 PM0.0 °F0.0 °F30.00 in10.0 miNW (320°)8.1 mphClear
7:15 PM0.0 °F0.0 °F30.00 in10.0 miNNW (330°)6.9 mphClear
7:35 PM0.0 °F0.0 °F29.99 in10.0 miNNW (340°)6.9 mphClear
7:55 PM0.0 °F0.0 °F30.00 in10.0 miNNW (330°)5.8 mphClear
8:15 PM0.0 °F0.0 °F30.01 in10.0 miNNW (330°)6.9 mphClear
8:35 PM0.0 °F0.0 °F30.02 in10.0 miNW (310°)4.6 mphClear
8:55 PM0.0 °F0.0 °F30.02 in10.0 miWNW (300°)4.6 mphClear
9:15 PM0.0 °F0.0 °F30.02 in10.0 miCalmClear
9:35 PM0.0 °F0.0 °F30.01 in10.0 miCalmClear
9:55 PM0.0 °F0.0 °F30.01 in10.0 miCalmClear
10:15 PM0.0 °F0.0 °F30.00 in10.0 miENE (70°)4.6 mphClear
10:35 PM0.0 °F0.0 °F29.99 in10.0 miEast (90°)5.8 mphClear
10:55 PM0.0 °F0.0 °F30.00 in10.0 miSouth (170°)6.9 mphClear
11:15 PM0.0 °F0.0 °F30.02 in10.0 miSSW (200°)4.6 mphClear
11:35 PM0.0 °F0.0 °F30.02 in10.0 miCalmClear
11:55 PM0.0 °F0.0 °F30.01 in10.0 miCalmClear
Hourly data recorded from KMSV, located miles away from Rock Hill, New York







STORIES FROM OUR PARTNERS